Pilot Rock, Oregon
Current Conditions -  °F | °C
As of 1:19 PM on Wednesday 17 Dec 2014 (Local Time) from KPDT Reporting Station
Haze Haze  
Wind Chill: 32°   Ceiling: 500
Heat Index: 37°   Visibility: 5mi
Dew Point: 35°   Wind: 7mph
Humidity: 93%   Direction: 330°NNW
Pressure: 29.89"   Gusts: NA
Location:  45.48°N, 118.83°W
Report Text: KPDT 172119Z 33006KT 5SM BR OVC005 03/02 A2989 RMK AO2 T00280017
Loading
Personal Weather Stations






























Interactive Weather Map New forecast layout! Learn more

10-Day Weather Forecast

Advertisements
Track Severe Weather on mobile